createdAt,value
2019-03-04T00:03:50.140Z,69.25
2019-03-04T00:08:54.367Z,68.74
2019-03-04T00:13:58.596Z,68.49
2019-03-04T00:19:02.822Z,68.74
2019-03-04T00:24:07.266Z,68.77
2019-03-04T00:29:11.493Z,68.80
2019-03-04T00:34:15.727Z,68.81
2019-03-04T00:39:19.960Z,68.68
2019-03-04T00:44:24.197Z,68.68
2019-03-04T00:49:28.447Z,68.47
2019-03-04T00:54:32.678Z,68.06
2019-03-04T00:59:36.907Z,67.86
2019-03-04T01:04:41.125Z,67.89
2019-03-04T01:09:45.361Z,67.77
2019-03-04T01:14:49.589Z,67.51
2019-03-04T01:19:53.790Z,67.63
2019-03-04T01:24:58.154Z,67.14
2019-03-04T01:30:02.596Z,66.83
2019-03-04T01:35:07.079Z,66.75
2019-03-04T01:40:13.906Z,66.53
2019-03-04T01:45:18.859Z,66.48
2019-03-04T01:50:23.091Z,66.53
2019-03-04T01:55:27.312Z,66.58
2019-03-04T02:00:31.533Z,66.46
2019-03-04T02:05:35.767Z,66.59
2019-03-04T02:10:39.981Z,66.94
2019-03-04T02:15:44.200Z,67.12
2019-03-04T02:20:48.420Z,67.32
2019-03-04T02:26:22.945Z,67.52
2019-03-04T02:31:27.229Z,67.49
2019-03-04T02:36:31.453Z,67.34
2019-03-04T02:41:35.685Z,67.60
2019-03-04T02:46:39.874Z,67.67
2019-03-04T02:51:44.097Z,67.76
2019-03-04T02:56:48.300Z,67.78
2019-03-04T03:01:52.530Z,68.01
2019-03-04T03:06:56.759Z,67.99
2019-03-04T03:12:00.982Z,67.79
2019-03-04T03:17:05.198Z,67.99
2019-03-04T03:22:09.411Z,68.09
2019-03-04T03:27:13.626Z,68.01
2019-03-04T03:32:17.889Z,68.11
2019-03-04T03:37:22.098Z,67.78
2019-03-04T03:42:26.533Z,67.68
2019-03-04T03:47:30.930Z,68.04
2019-03-04T03:52:35.137Z,67.93
2019-03-04T03:57:39.355Z,67.82
2019-03-04T04:02:43.585Z,67.76
2019-03-04T04:07:47.790Z,67.99
2019-03-04T04:12:52.000Z,68.19
2019-03-04T04:17:56.211Z,68.29
2019-03-04T04:23:00.414Z,68.72
2019-03-04T04:28:07.371Z,68.47
2019-03-04T04:33:11.596Z,68.50
2019-03-04T04:38:15.828Z,68.89
2019-03-04T04:43:20.052Z,69.09
2019-03-04T04:48:24.476Z,69.20
2019-03-04T04:53:28.693Z,69.39
2019-03-04T04:58:32.933Z,69.40
2019-03-04T05:03:37.138Z,69.27
2019-03-04T05:08:41.361Z,69.03
2019-03-04T05:13:45.566Z,68.87
2019-03-04T05:18:49.804Z,68.90
2019-03-04T05:23:54.050Z,68.79
2019-03-04T05:28:58.323Z,68.94
2019-03-04T05:34:02.564Z,69.20
2019-03-04T05:39:07.977Z,70.17
2019-03-04T05:44:12.197Z,70.07
2019-03-04T05:49:16.427Z,70.36
2019-03-04T05:54:20.637Z,70.72
2019-03-04T05:59:24.866Z,70.98
2019-03-04T06:04:29.105Z,71.18
2019-03-04T06:09:33.362Z,71.33
2019-03-04T06:14:37.624Z,71.34
2019-03-04T06:19:43.953Z,71.44
2019-03-04T06:24:47.764Z,70.90
2019-03-04T06:29:51.983Z,70.43
2019-03-04T06:34:56.220Z,69.91
2019-03-04T06:40:00.443Z,69.67
2019-03-04T06:45:05.558Z,70.06
2019-03-04T06:50:29.644Z,69.68
2019-03-04T06:56:03.169Z,70.02
2019-03-04T07:01:14.479Z,70.03
2019-03-04T07:06:18.706Z,70.05
2019-03-04T07:11:22.938Z,69.92
2019-03-04T07:16:27.204Z,69.67
2019-03-04T07:21:31.417Z,69.00
2019-03-04T07:26:35.635Z,68.48
2019-03-04T07:31:39.869Z,67.99
2019-03-04T07:36:44.094Z,67.08
2019-03-04T07:41:50.403Z,66.62
2019-03-04T07:46:54.626Z,65.92
2019-03-04T07:51:58.993Z,65.48
2019-03-04T07:57:03.733Z,65.02
2019-03-04T08:02:07.960Z,64.60
2019-03-04T08:07:47.915Z,64.12
2019-03-04T08:13:08.448Z,64.19
2019-03-04T08:18:12.682Z,63.97
2019-03-04T08:23:16.901Z,64.29
2019-03-04T08:28:21.116Z,64.15
2019-03-04T08:33:25.426Z,63.89
2019-03-04T08:38:29.578Z,63.70
2019-03-04T08:43:33.849Z,62.97
2019-03-04T08:48:38.155Z,61.53
2019-03-04T08:53:42.383Z,61.20
2019-03-04T08:58:46.593Z,61.30
2019-03-04T09:03:50.821Z,61.49
2019-03-04T09:08:55.218Z,61.45
2019-03-04T09:13:59.431Z,61.24
2019-03-04T09:19:03.672Z,60.73
2019-03-04T09:24:07.915Z,60.09
2019-03-04T09:29:12.138Z,59.52
2019-03-04T09:34:16.468Z,58.38
2019-03-04T09:39:20.673Z,57.61
2019-03-04T09:44:24.900Z,56.99
2019-03-04T09:49:29.136Z,56.76
2019-03-04T09:54:33.361Z,56.51
2019-03-04T09:59:37.601Z,56.16
2019-03-04T10:05:35.018Z,56.09
2019-03-04T10:11:03.557Z,56.12
2019-03-04T10:16:32.566Z,55.79
2019-03-04T10:22:13.862Z,55.58
2019-03-04T10:28:07.379Z,55.38
2019-03-04T10:33:47.701Z,54.57
2019-03-04T10:39:22.442Z,53.81
2019-03-04T10:45:12.595Z,49.43
2019-03-04T10:50:16.810Z,44.78
2019-03-04T10:55:21.126Z,45.85
2019-03-04T11:00:25.398Z,46.38
2019-03-04T11:05:29.620Z,45.43
2019-03-04T11:10:33.847Z,45.45
2019-03-04T11:15:38.066Z,43.67
2019-03-04T11:20:42.402Z,41.33
2019-03-04T11:25:46.650Z,39.89
2019-03-04T11:30:50.882Z,39.68
2019-03-04T11:35:56.312Z,58.86
2019-03-04T11:41:00.512Z,67.07
2019-03-04T11:46:05.132Z,67.84
2019-03-04T11:51:09.357Z,69.89
2019-03-04T11:56:13.561Z,70.16
2019-03-04T12:01:40.873Z,68.42
2019-03-04T12:06:45.105Z,70.31
2019-03-04T12:11:49.324Z,67.80
2019-03-04T12:16:53.640Z,66.33
2019-03-04T12:21:58.973Z,64.69
2019-03-04T12:27:06.866Z,63.82
2019-03-04T12:32:18.449Z,60.21
2019-03-04T12:37:22.659Z,59.06
2019-03-04T12:42:26.891Z,60.52
2019-03-04T12:47:31.127Z,60.44
2019-03-04T12:52:35.383Z,58.87
2019-03-04T12:57:39.933Z,57.15
2019-03-04T13:02:44.559Z,55.74
2019-03-04T13:07:48.985Z,54.11
2019-03-04T13:12:53.211Z,54.83
2019-03-04T13:17:58.267Z,53.70
2019-03-04T13:23:02.484Z,53.33
2019-03-04T13:28:08.594Z,51.71
2019-03-04T13:33:12.756Z,51.11
2019-03-04T13:38:16.976Z,46.35
2019-03-04T13:43:21.239Z,43.22
2019-03-04T13:48:25.487Z,40.84
2019-03-04T13:53:29.720Z,41.17
2019-03-04T13:58:33.942Z,39.82
2019-03-04T14:03:38.171Z,39.83
2019-03-04T14:08:42.388Z,39.95
2019-03-04T14:13:46.651Z,40.31
2019-03-04T14:18:50.885Z,40.36
2019-03-04T14:23:55.102Z,40.35
2019-03-04T14:28:59.333Z,39.19
2019-03-04T14:34:03.582Z,38.77
2019-03-04T14:39:13.630Z,38.76
2019-03-04T14:44:17.972Z,38.66
2019-03-04T14:49:22.200Z,39.24
2019-03-04T14:54:26.488Z,40.42
2019-03-04T14:59:30.736Z,39.96
2019-03-04T15:04:35.922Z,39.89
2019-03-04T15:09:49.072Z,39.82
2019-03-04T15:14:46.105Z,39.80
2019-03-04T15:19:50.340Z,39.66
2019-03-04T15:24:54.567Z,39.66
2019-03-04T15:29:58.804Z,40.06
2019-03-04T15:35:03.036Z,40.62
2019-03-04T15:40:07.549Z,41.13
2019-03-04T15:45:12.599Z,40.38
2019-03-04T15:50:16.854Z,40.36
2019-03-04T15:55:22.836Z,40.45
2019-03-04T16:00:27.234Z,40.89
2019-03-04T16:05:31.571Z,41.06
2019-03-04T16:10:37.251Z,40.63
2019-03-04T16:15:42.917Z,40.88
2019-03-04T16:20:47.496Z,71.51
2019-03-04T16:25:51.706Z,82.12
2019-03-04T16:30:56.047Z,85.26
2019-03-04T16:36:00.257Z,83.57
2019-03-04T16:41:04.493Z,85.96
2019-03-04T16:46:08.716Z,84.09
2019-03-04T16:51:12.960Z,83.62
2019-03-04T16:56:17.204Z,81.63
2019-03-04T17:01:21.425Z,80.15
2019-03-04T17:06:25.879Z,78.77
2019-03-04T17:11:30.092Z,79.46
2019-03-04T17:16:34.348Z,78.18
2019-03-04T17:21:38.696Z,74.48
2019-03-04T17:26:42.943Z,75.73
2019-03-04T17:31:47.169Z,74.06
2019-03-04T17:36:51.642Z,74.04
2019-03-04T17:41:55.836Z,73.90
2019-03-04T17:47:00.049Z,72.96
2019-03-04T17:52:04.367Z,70.72
2019-03-04T17:57:08.599Z,70.48
2019-03-04T18:02:12.971Z,70.43
2019-03-04T18:07:17.183Z,69.75
2019-03-04T18:12:21.416Z,69.39
2019-03-04T18:17:25.674Z,68.48
2019-03-04T18:22:29.939Z,68.03
2019-03-04T18:27:56.018Z,66.18
2019-03-04T18:33:44.536Z,65.71
2019-03-04T18:39:37.797Z,64.99
2019-03-04T18:44:58.335Z,64.79
2019-03-04T18:50:02.563Z,64.57
2019-03-04T18:55:07.296Z,64.47
2019-03-04T19:00:14.699Z,64.10
2019-03-04T19:05:19.020Z,63.91
2019-03-04T19:10:23.431Z,63.50
2019-03-04T19:15:27.668Z,63.37
2019-03-04T19:20:31.914Z,63.93
2019-03-04T19:25:36.140Z,63.36
2019-03-04T19:30:40.369Z,62.62
2019-03-04T19:35:44.672Z,62.54
2019-03-04T19:40:48.930Z,60.88
2019-03-04T19:45:53.178Z,61.20
2019-03-04T19:50:57.431Z,59.63
2019-03-04T19:56:01.704Z,59.85
2019-03-04T20:01:07.064Z,59.52
2019-03-04T20:06:11.324Z,60.04
2019-03-04T20:11:15.551Z,59.78
2019-03-04T20:16:20.027Z,59.89
2019-03-04T20:21:24.341Z,59.59
2019-03-04T20:26:28.984Z,59.46
2019-03-04T20:31:33.327Z,58.29
2019-03-04T20:36:37.540Z,57.15
2019-03-04T20:41:41.801Z,55.94
2019-03-04T20:46:46.030Z,56.29
2019-03-04T20:51:50.293Z,55.49
2019-03-04T20:56:54.593Z,54.74
2019-03-04T21:02:09.250Z,55.01
2019-03-04T21:07:11.266Z,54.73
2019-03-04T21:12:15.529Z,53.83
2019-03-04T21:17:19.807Z,54.31
2019-03-04T21:22:24.036Z,53.86
2019-03-04T21:27:28.553Z,53.79
2019-03-04T21:33:07.132Z,53.60
2019-03-04T21:38:11.367Z,54.57
2019-03-04T21:43:20.780Z,54.10
2019-03-04T21:48:50.153Z,54.20
2019-03-04T21:53:54.378Z,55.21
2019-03-04T21:58:58.668Z,55.35
2019-03-04T22:04:02.997Z,55.25
2019-03-04T22:09:07.379Z,55.90
2019-03-04T22:14:11.634Z,55.84
2019-03-04T22:19:15.883Z,55.94
2019-03-04T22:24:20.126Z,55.96
2019-03-04T22:29:24.465Z,56.20
2019-03-04T22:34:28.787Z,55.53
2019-03-04T22:39:33.079Z,55.86
2019-03-04T22:44:37.336Z,55.56
2019-03-04T22:49:41.587Z,55.33
2019-03-04T22:54:45.816Z,55.33
2019-03-04T22:59:50.046Z,54.92
2019-03-04T23:04:57.737Z,54.84
2019-03-04T23:10:17.711Z,54.64
2019-03-04T23:15:22.826Z,54.74
2019-03-04T23:20:27.049Z,55.03
2019-03-04T23:25:31.289Z,54.71
2019-03-04T23:30:35.611Z,55.04
2019-03-04T23:35:39.839Z,55.34
2019-03-04T23:40:44.099Z,55.39
2019-03-04T23:45:48.384Z,55.49
2019-03-04T23:50:53.062Z,55.60
2019-03-04T23:55:57.416Z,55.79
